createdAt,value
2023-01-06T00:01:28.607Z,101040.81
2023-01-06T00:03:59.578Z,101039.72
2023-01-06T00:06:31.084Z,101043.72
2023-01-06T00:09:01.150Z,101032.19
2023-01-06T00:11:29.597Z,101022.41
2023-01-06T00:13:59.668Z,101034.72
2023-01-06T00:16:27.591Z,101030.34
2023-01-06T00:18:57.121Z,101029.13
2023-01-06T00:21:25.633Z,101032.75
2023-01-06T00:23:53.702Z,101042.25
2023-01-06T00:26:22.046Z,101039.34
2023-01-06T00:28:50.029Z,101032.88
2023-01-06T00:31:19.658Z,101034.19
2023-01-06T00:33:47.733Z,101041.97
2023-01-06T00:36:16.145Z,101046.25
2023-01-06T00:38:44.320Z,101045.75
2023-01-06T00:41:27.754Z,101046.84
2023-01-06T00:43:56.433Z,101042.84
2023-01-06T00:46:29.496Z,101049.63
2023-01-06T00:49:06.924Z,101049.00
2023-01-06T00:51:37.041Z,101058.88
2023-01-06T00:54:05.109Z,101054.59
2023-01-06T00:56:33.063Z,101061.06
2023-01-06T00:59:03.049Z,101051.22
2023-01-06T01:01:32.635Z,101054.88
2023-01-06T01:04:00.810Z,101056.44
2023-01-06T01:06:29.178Z,101058.13
2023-01-06T01:08:58.677Z,101054.72
2023-01-06T01:11:46.427Z,101061.41
2023-01-06T01:14:15.433Z,101063.38
2023-01-06T01:16:45.153Z,101064.94
2023-01-06T01:19:13.837Z,101058.72
2023-01-06T01:21:41.840Z,101066.53
2023-01-06T01:24:10.128Z,101057.75
2023-01-06T01:26:38.124Z,101070.19
2023-01-06T01:29:06.345Z,101069.31
2023-01-06T01:31:34.700Z,101071.13
2023-01-06T01:34:04.575Z,101072.13
2023-01-06T01:36:32.564Z,101076.88
2023-01-06T01:39:00.810Z,101061.69
2023-01-06T01:41:30.401Z,101066.28
2023-01-06T01:44:00.601Z,101063.38
2023-01-06T01:46:32.404Z,101059.94
2023-01-06T01:49:04.126Z,101058.03
2023-01-06T01:51:37.012Z,101051.69
2023-01-06T01:54:09.087Z,101055.06
2023-01-06T01:56:42.902Z,101055.34
2023-01-06T01:59:13.401Z,101061.53
2023-01-06T02:01:41.643Z,101059.47
2023-01-06T02:04:12.095Z,101045.19
2023-01-06T02:06:42.329Z,101048.50
2023-01-06T02:09:16.276Z,101048.50
2023-01-06T02:11:44.711Z,101039.47
2023-01-06T02:14:14.376Z,101048.63
2023-01-06T02:16:58.319Z,101063.94
2023-01-06T02:19:59.948Z,101054.59
2023-01-06T02:22:48.903Z,101059.38
2023-01-06T02:25:46.108Z,101064.13
2023-01-06T02:28:52.770Z,101052.81
2023-01-06T02:31:48.243Z,101057.31
2023-01-06T02:34:24.389Z,101071.69
2023-01-06T02:37:03.420Z,101063.50
2023-01-06T02:39:42.264Z,101061.31
2023-01-06T02:42:19.969Z,101067.50
2023-01-06T02:44:57.475Z,101079.06
2023-01-06T02:47:35.022Z,101076.03
2023-01-06T02:50:15.756Z,101073.09
2023-01-06T02:52:47.767Z,101076.03
2023-01-06T02:55:23.592Z,101088.47
2023-01-06T02:57:56.829Z,101076.16
2023-01-06T03:00:30.387Z,101070.31
2023-01-06T03:03:04.632Z,101071.31
2023-01-06T03:05:36.687Z,101076.53
2023-01-06T03:08:10.562Z,101078.84
2023-01-06T03:10:40.546Z,101098.31
2023-01-06T03:13:14.390Z,101087.25
2023-01-06T03:15:42.734Z,101104.31
2023-01-06T03:18:12.189Z,101102.25
2023-01-06T03:20:41.442Z,101109.78
2023-01-06T03:23:09.569Z,101093.63
2023-01-06T03:25:39.409Z,101094.09
2023-01-06T03:28:07.719Z,101092.03
2023-01-06T03:30:43.766Z,101094.06
2023-01-06T03:33:22.497Z,101096.88
2023-01-06T03:36:01.980Z,101093.59
2023-01-06T03:38:43.642Z,101081.94
2023-01-06T03:41:44.619Z,101089.97
2023-01-06T03:44:20.056Z,101071.72
2023-01-06T03:46:53.935Z,101073.91
2023-01-06T03:49:29.951Z,101087.16
2023-01-06T03:52:00.394Z,101084.34
2023-01-06T03:54:39.482Z,101077.06
2023-01-06T03:57:10.728Z,101071.59
2023-01-06T03:59:44.243Z,101086.56
2023-01-06T04:02:12.593Z,101066.72
2023-01-06T04:04:42.731Z,101063.69
2023-01-06T04:07:10.835Z,101059.88
2023-01-06T04:09:38.706Z,101068.28
2023-01-06T04:12:24.248Z,101060.75
2023-01-06T04:14:52.123Z,101072.50
2023-01-06T04:17:20.333Z,101074.84
2023-01-06T04:19:49.676Z,101074.34
2023-01-06T04:22:17.605Z,101069.00
2023-01-06T04:24:45.567Z,101073.13
2023-01-06T04:27:13.528Z,101076.31
2023-01-06T04:29:41.724Z,101075.72
2023-01-06T04:32:09.850Z,101073.91
2023-01-06T04:34:37.838Z,101080.97
2023-01-06T04:37:07.495Z,101081.44
2023-01-06T04:39:35.489Z,101077.66
2023-01-06T04:42:03.418Z,101072.94
2023-01-06T04:44:31.351Z,101071.72
2023-01-06T04:46:59.312Z,101067.94
2023-01-06T04:49:27.216Z,101066.47
2023-01-06T04:51:55.359Z,101060.75
2023-01-06T04:54:24.877Z,101065.84
2023-01-06T04:56:52.903Z,101062.78
2023-01-06T04:59:21.373Z,101062.69
2023-01-06T05:01:49.542Z,101067.78
2023-01-06T05:04:17.553Z,101071.22
2023-01-06T05:06:45.743Z,101067.53
2023-01-06T05:09:13.944Z,101062.06
2023-01-06T05:11:43.485Z,101063.66
2023-01-06T05:14:11.753Z,101057.81
2023-01-06T05:16:40.052Z,101057.81
2023-01-06T05:19:08.096Z,101066.84
2023-01-06T05:21:36.081Z,101066.56
2023-01-06T05:24:04.113Z,101063.16
2023-01-06T05:26:32.181Z,101067.41
2023-01-06T05:29:01.545Z,101066.56
2023-01-06T05:31:29.638Z,101064.50
2023-01-06T05:33:57.889Z,101070.56
2023-01-06T05:36:25.810Z,101068.88
2023-01-06T05:38:54.953Z,101060.69
2023-01-06T05:41:23.157Z,101059.63
2023-01-06T05:43:51.100Z,101057.91
2023-01-06T05:46:20.502Z,101046.09
2023-01-06T05:48:48.376Z,101050.47
2023-01-06T05:51:17.631Z,101043.53
2023-01-06T05:53:47.439Z,101042.09
2023-01-06T05:56:18.396Z,101059.00
2023-01-06T05:58:47.892Z,101053.91
2023-01-06T06:01:18.214Z,101052.19
2023-01-06T06:03:47.947Z,101053.16
2023-01-06T06:06:16.966Z,101052.47
2023-01-06T06:08:44.892Z,101047.09
2023-01-06T06:11:15.147Z,101048.19
2023-01-06T06:13:47.154Z,101054.66
2023-01-06T06:16:17.092Z,101046.88
2023-01-06T06:18:45.584Z,101039.34
2023-01-06T06:21:17.186Z,101035.91
2023-01-06T06:23:45.542Z,101027.53
2023-01-06T06:26:13.676Z,101034.97
2023-01-06T06:28:42.606Z,101037.16
2023-01-06T06:31:12.204Z,101024.13
2023-01-06T06:33:40.687Z,101032.28
2023-01-06T06:36:12.320Z,101036.19
2023-01-06T06:38:41.687Z,101036.66
2023-01-06T06:41:09.677Z,101036.66
2023-01-06T06:43:37.749Z,101033.00
2023-01-06T06:46:06.269Z,101027.91
2023-01-06T06:48:34.749Z,101028.63
2023-01-06T06:51:04.778Z,101039.31
2023-01-06T06:53:34.058Z,101040.31
2023-01-06T06:56:03.469Z,101033.78
2023-01-06T06:58:31.804Z,101036.31
2023-01-06T07:01:00.020Z,101030.84
2023-01-06T07:03:27.938Z,101026.94
2023-01-06T07:05:57.388Z,101024.88
2023-01-06T07:08:25.458Z,101026.44
2023-01-06T07:10:53.519Z,101021.00
2023-01-06T07:13:22.947Z,101018.69
2023-01-06T07:15:51.011Z,101017.94
2023-01-06T07:18:19.370Z,101021.72
2023-01-06T07:20:49.801Z,101010.75
2023-01-06T07:23:17.767Z,101011.09
2023-01-06T07:25:45.796Z,101017.66
2023-01-06T07:28:14.027Z,101011.75
2023-01-06T07:30:43.454Z,101016.22
2023-01-06T07:33:11.551Z,101012.59
2023-01-06T07:35:39.608Z,101009.91
2023-01-06T07:38:08.911Z,101017.09
2023-01-06T07:40:37.122Z,101001.63
2023-01-06T07:43:06.542Z,101005.28
2023-01-06T07:45:35.293Z,101001.38
2023-01-06T07:48:05.577Z,101008.19
2023-01-06T07:50:33.978Z,101006.50
2023-01-06T07:53:03.581Z,101009.06
2023-01-06T07:55:31.708Z,101016.22
2023-01-06T07:57:59.935Z,101004.78
2023-01-06T08:00:28.087Z,101009.41
2023-01-06T08:02:56.078Z,101014.75
2023-01-06T08:05:25.585Z,101012.22
2023-01-06T08:07:53.485Z,101014.00
2023-01-06T08:10:21.444Z,101015.84
2023-01-06T08:12:49.390Z,101021.31
2023-01-06T08:15:17.384Z,101011.47
2023-01-06T08:17:45.378Z,101021.09
2023-01-06T08:20:13.654Z,101028.13
2023-01-06T08:22:43.040Z,101017.44
2023-01-06T08:25:11.746Z,101021.94
2023-01-06T08:27:39.904Z,101017.44
2023-01-06T08:30:09.261Z,101033.50
2023-01-06T08:32:37.221Z,101023.50
2023-01-06T08:35:05.530Z,101035.19
2023-01-06T08:37:33.499Z,101036.31
2023-01-06T08:40:02.806Z,101033.84
2023-01-06T08:42:30.784Z,101027.88
2023-01-06T08:44:59.753Z,101030.69
2023-01-06T08:47:27.801Z,101017.53
2023-01-06T08:49:55.713Z,101026.56
2023-01-06T08:52:23.753Z,101025.56
2023-01-06T08:54:51.722Z,101024.00
2023-01-06T08:57:21.151Z,101012.81
2023-01-06T08:59:49.132Z,101020.72
2023-01-06T09:02:17.299Z,101015.50
2023-01-06T09:04:45.400Z,101023.53
2023-01-06T09:07:13.440Z,101019.88
2023-01-06T09:09:41.480Z,101009.03
2023-01-06T09:12:09.533Z,101015.13
2023-01-06T09:14:38.997Z,101024.50
2023-01-06T09:17:06.944Z,101022.53
2023-01-06T09:19:34.993Z,101018.53
2023-01-06T09:22:02.954Z,101012.22
2023-01-06T09:24:31.440Z,101010.03
2023-01-06T09:26:59.651Z,101018.78
2023-01-06T09:29:27.800Z,101014.78
2023-01-06T09:31:57.300Z,101025.25
2023-01-06T09:34:25.399Z,101012.59
2023-01-06T09:36:53.515Z,101019.63
2023-01-06T09:39:21.513Z,101014.91
2023-01-06T09:42:20.400Z,101014.75
2023-01-06T09:44:52.264Z,101017.19
2023-01-06T09:47:25.633Z,101016.00
2023-01-06T09:50:00.688Z,101017.31
2023-01-06T09:52:38.933Z,101015.97
2023-01-06T09:55:09.470Z,101020.81
2023-01-06T09:57:41.285Z,101022.88
2023-01-06T10:00:21.417Z,101019.81
2023-01-06T10:02:50.876Z,101015.16
2023-01-06T10:05:21.979Z,101016.63
2023-01-06T10:07:59.780Z,101017.47
2023-01-06T10:10:37.948Z,101012.59
2023-01-06T10:13:20.756Z,101007.59
2023-01-06T10:15:53.531Z,101008.78
2023-01-06T10:18:36.815Z,101014.34
2023-01-06T10:21:15.766Z,101005.19
2023-01-06T10:24:13.228Z,101013.59
2023-01-06T10:26:45.178Z,101008.81
2023-01-06T10:29:16.193Z,101007.31
2023-01-06T10:31:47.283Z,101004.84
2023-01-06T10:34:22.209Z,100994.69
2023-01-06T10:36:56.053Z,100990.78
2023-01-06T10:39:26.647Z,100981.50
2023-01-06T10:42:16.583Z,100982.22
2023-01-06T10:44:44.624Z,100980.13
2023-01-06T10:47:20.037Z,100974.97
2023-01-06T10:49:49.539Z,100969.22
2023-01-06T10:52:18.203Z,100965.84
2023-01-06T10:54:47.143Z,100948.66
2023-01-06T10:57:26.949Z,100940.78
2023-01-06T11:00:13.358Z,100938.25
2023-01-06T11:02:46.230Z,100933.47
2023-01-06T11:05:17.899Z,100938.44
2023-01-06T11:07:54.715Z,100939.44
2023-01-06T11:10:32.101Z,100937.72
2023-01-06T11:13:03.654Z,100927.72
2023-01-06T11:15:39.397Z,100928.56
2023-01-06T11:18:18.649Z,100926.03
2023-01-06T11:21:03.590Z,100925.28
2023-01-06T11:23:31.719Z,100924.19
2023-01-06T11:26:06.167Z,100920.38
2023-01-06T11:28:34.355Z,100906.25
2023-01-06T11:31:07.349Z,100910.06
2023-01-06T11:33:37.848Z,100902.75
2023-01-06T11:36:13.121Z,100898.47
2023-01-06T11:38:46.314Z,100895.94
2023-01-06T11:41:22.640Z,100902.84
2023-01-06T11:43:51.844Z,100897.38
2023-01-06T11:46:23.917Z,100896.53
2023-01-06T11:49:00.120Z,100876.50
2023-01-06T11:51:49.003Z,100879.03
2023-01-06T11:54:31.416Z,100879.59
2023-01-06T11:57:17.364Z,100873.09
2023-01-06T12:00:26.286Z,100873.09
2023-01-06T12:03:03.540Z,100870.84
2023-01-06T12:05:39.966Z,100866.63
2023-01-06T12:08:16.154Z,100851.91
2023-01-06T12:10:49.504Z,100856.72
2023-01-06T12:13:20.363Z,100854.47
2023-01-06T12:15:58.428Z,100837.38
2023-01-06T12:18:31.634Z,100857.00
2023-01-06T12:21:02.160Z,100846.13
2023-01-06T12:23:35.943Z,100847.69
2023-01-06T12:26:10.405Z,100834.53
2023-01-06T12:28:42.777Z,100834.13
2023-01-06T12:31:16.204Z,100842.03
2023-01-06T12:33:49.042Z,100829.88
2023-01-06T12:36:21.506Z,100830.72
2023-01-06T12:38:55.959Z,100810.63
2023-01-06T12:41:30.152Z,100804.66
2023-01-06T12:44:04.912Z,100808.88
2023-01-06T12:46:41.244Z,100797.44
2023-01-06T12:49:21.790Z,100802.53
2023-01-06T12:51:55.504Z,100789.19
2023-01-06T12:54:29.102Z,100781.53
2023-01-06T12:57:07.855Z,100759.34
2023-01-06T12:59:46.921Z,100755.19
2023-01-06T13:02:29.773Z,100746.53
2023-01-06T13:05:24.105Z,100696.84
2023-01-06T13:08:03.873Z,100692.56
2023-01-06T13:10:39.608Z,100695.50
2023-01-06T13:13:33.332Z,100679.91
2023-01-06T13:16:06.518Z,100671.38
2023-01-06T13:18:42.504Z,100670.75
2023-01-06T13:21:14.294Z,100700.44
2023-01-06T13:24:04.344Z,100685.75
2023-01-06T13:27:03.337Z,100690.06
2023-01-06T13:29:50.264Z,100683.81
2023-01-06T13:32:50.166Z,100675.59
2023-01-06T13:35:36.206Z,100671.59
2023-01-06T13:38:22.307Z,100661.66
2023-01-06T13:40:52.917Z,100654.34
2023-01-06T13:43:24.389Z,100651.41
2023-01-06T13:45:58.518Z,100646.38
2023-01-06T13:48:31.926Z,100638.75
2023-01-06T13:51:01.265Z,100630.28
2023-01-06T13:53:37.115Z,100631.00
2023-01-06T13:56:27.589Z,100623.50
2023-01-06T13:59:24.209Z,100611.56
2023-01-06T14:01:59.655Z,100615.94
2023-01-06T14:04:49.692Z,100609.88
2023-01-06T14:07:33.456Z,100604.34
2023-01-06T14:10:02.369Z,100593.06
2023-01-06T14:12:31.077Z,100588.22
2023-01-06T14:15:03.053Z,100580.97
2023-01-06T14:17:42.872Z,100568.31
2023-01-06T14:20:30.021Z,100563.75
2023-01-06T14:23:01.883Z,100549.91
2023-01-06T14:25:31.254Z,100552.06
2023-01-06T14:28:25.975Z,100546.31
2023-01-06T14:31:25.606Z,100538.88
2023-01-06T14:33:57.768Z,100524.91
2023-01-06T14:36:28.079Z,100523.53
2023-01-06T14:39:00.658Z,100505.81
2023-01-06T14:41:32.309Z,100511.13
2023-01-06T14:44:07.619Z,100499.00
2023-01-06T14:46:42.943Z,100496.09
2023-01-06T14:49:20.870Z,100486.84
2023-01-06T14:51:52.636Z,100490.84
2023-01-06T14:54:26.682Z,100485.47
2023-01-06T14:56:56.825Z,100477.28
2023-01-06T14:59:25.387Z,100472.25
2023-01-06T15:02:00.126Z,100472.84
2023-01-06T15:04:32.868Z,100474.31
2023-01-06T15:07:17.068Z,100469.75
2023-01-06T15:09:45.853Z,100464.00
2023-01-06T15:12:35.133Z,100456.88
2023-01-06T15:15:16.195Z,100461.25
2023-01-06T15:17:44.585Z,100459.03
2023-01-06T15:20:15.332Z,100460.88
2023-01-06T15:22:46.880Z,100444.75
2023-01-06T15:25:22.179Z,100442.34
2023-01-06T15:27:50.787Z,100445.75
2023-01-06T15:30:21.086Z,100448.56
2023-01-06T15:32:51.276Z,100441.34
2023-01-06T15:35:25.241Z,100442.34
2023-01-06T15:38:00.079Z,100432.44
2023-01-06T15:40:30.189Z,100430.47
2023-01-06T15:42:59.810Z,100428.97
2023-01-06T15:45:32.495Z,100419.91
2023-01-06T15:48:09.472Z,100415.22
2023-01-06T15:50:39.729Z,100428.03
2023-01-06T15:53:19.756Z,100414.44
2023-01-06T15:55:51.403Z,100417.66
2023-01-06T15:58:25.709Z,100413.41
2023-01-06T16:01:00.640Z,100403.88
2023-01-06T16:03:32.078Z,100399.19
2023-01-06T16:06:11.679Z,100410.25
2023-01-06T16:08:40.991Z,100411.16
2023-01-06T16:11:42.773Z,100398.50
2023-01-06T16:14:26.922Z,100404.56
2023-01-06T16:17:02.702Z,100399.38
2023-01-06T16:19:31.213Z,100406.78
2023-01-06T16:22:05.087Z,100403.09
2023-01-06T16:24:33.585Z,100406.63
2023-01-06T16:27:03.902Z,100405.25
2023-01-06T16:29:33.934Z,100400.56
2023-01-06T16:32:21.101Z,100404.94
2023-01-06T16:34:55.159Z,100398.72
2023-01-06T16:37:24.682Z,100402.06
2023-01-06T16:39:59.376Z,100394.19
2023-01-06T16:42:40.869Z,100389.81
2023-01-06T16:45:14.274Z,100391.13
2023-01-06T16:47:42.683Z,100382.41
2023-01-06T16:50:19.693Z,100380.03
2023-01-06T16:52:52.969Z,100381.75
2023-01-06T16:55:21.780Z,100384.94
2023-01-06T16:57:51.139Z,100382.25
2023-01-06T17:00:22.444Z,100372.66
2023-01-06T17:02:54.090Z,100377.03
2023-01-06T17:05:28.003Z,100380.38
2023-01-06T17:08:04.006Z,100364.06
2023-01-06T17:10:48.137Z,100365.91
2023-01-06T17:13:34.969Z,100366.22
2023-01-06T17:16:14.899Z,100357.31
2023-01-06T17:18:52.502Z,100355.28
2023-01-06T17:21:22.845Z,100355.81
2023-01-06T17:23:58.567Z,100349.88
2023-01-06T17:26:28.657Z,100338.81
2023-01-06T17:28:58.891Z,100347.72
2023-01-06T17:31:36.506Z,100348.75
2023-01-06T17:34:13.579Z,100343.69
2023-01-06T17:36:44.215Z,100345.88
2023-01-06T17:39:20.082Z,100339.31
2023-01-06T17:41:48.069Z,100348.22
2023-01-06T17:44:17.840Z,100338.28
2023-01-06T17:46:46.872Z,100327.53
2023-01-06T17:49:35.389Z,100331.25
2023-01-06T17:52:15.837Z,100313.44
2023-01-06T17:55:22.708Z,100313.25
2023-01-06T17:57:51.638Z,100320.47
2023-01-06T18:00:23.139Z,100325.03
2023-01-06T18:02:56.796Z,100312.06
2023-01-06T18:06:08.816Z,100311.22
2023-01-06T18:08:38.835Z,100309.25
2023-01-06T18:11:25.070Z,100311.09
2023-01-06T18:13:54.035Z,100306.38
2023-01-06T18:16:29.323Z,100305.06
2023-01-06T18:19:05.820Z,100293.47
2023-01-06T18:21:37.941Z,100289.94
2023-01-06T18:24:20.092Z,100291.66
2023-01-06T18:26:53.943Z,100286.78
2023-01-06T18:29:25.545Z,100290.31
2023-01-06T18:31:55.160Z,100285.94
2023-01-06T18:34:36.486Z,100297.56
2023-01-06T18:37:04.773Z,100277.91
2023-01-06T18:39:39.793Z,100278.47
2023-01-06T18:42:34.112Z,100277.59
2023-01-06T18:45:19.275Z,100266.69
2023-01-06T18:47:52.206Z,100262.16
2023-01-06T18:50:33.418Z,100261.13
2023-01-06T18:53:06.937Z,100261.66
2023-01-06T18:55:38.703Z,100259.13
2023-01-06T18:58:21.778Z,100252.75
2023-01-06T19:00:54.393Z,100254.09
2023-01-06T19:03:42.239Z,100254.59
2023-01-06T19:06:41.681Z,100251.41
2023-01-06T19:09:18.980Z,100240.66
2023-01-06T19:11:48.270Z,100244.88
2023-01-06T19:14:20.652Z,100248.41
2023-01-06T19:17:00.286Z,100238.66
2023-01-06T19:19:37.001Z,100244.88
2023-01-06T19:22:17.242Z,100232.56
2023-01-06T19:24:52.461Z,100220.78
2023-01-06T19:27:50.997Z,100219.63
2023-01-06T19:30:45.767Z,100222.47
2023-01-06T19:33:39.159Z,100208.00
2023-01-06T19:36:36.066Z,100211.06
2023-01-06T19:39:16.780Z,100208.72
2023-01-06T19:41:45.408Z,100205.66
2023-01-06T19:44:15.152Z,100208.53
2023-01-06T19:46:46.360Z,100197.94
2023-01-06T19:49:18.304Z,100188.19
2023-01-06T19:51:47.305Z,100192.56
2023-01-06T19:54:26.199Z,100201.13
2023-01-06T19:56:55.476Z,100186.84
2023-01-06T19:59:26.532Z,100184.16
2023-01-06T20:02:00.346Z,100175.91
2023-01-06T20:04:29.112Z,100180.44
2023-01-06T20:06:57.361Z,100163.63
2023-01-06T20:09:25.812Z,100159.59
2023-01-06T20:11:54.107Z,100154.38
2023-01-06T20:14:22.575Z,100161.28
2023-01-06T20:16:50.783Z,100153.38
2023-01-06T20:19:21.712Z,100146.31
2023-01-06T20:21:50.086Z,100143.25
2023-01-06T20:24:18.127Z,100137.72
2023-01-06T20:26:46.331Z,100136.88
2023-01-06T20:29:14.311Z,100126.25
2023-01-06T20:31:44.889Z,100125.94
2023-01-06T20:34:12.904Z,100106.06
2023-01-06T20:36:43.092Z,100109.59
2023-01-06T20:39:12.220Z,100119.03
2023-01-06T20:41:40.239Z,100096.84
2023-01-06T20:44:08.398Z,100109.78
2023-01-06T20:46:36.371Z,100110.44
2023-01-06T20:49:04.432Z,100087.22
2023-01-06T20:51:32.484Z,100103.38
2023-01-06T20:54:01.916Z,100087.75
2023-01-06T20:56:29.953Z,100071.06
2023-01-06T20:58:58.034Z,100087.56
2023-01-06T21:01:26.222Z,100076.13
2023-01-06T21:03:54.499Z,100071.72
2023-01-06T21:06:22.733Z,100074.78
2023-01-06T21:08:50.686Z,100073.44
2023-01-06T21:11:20.051Z,100062.84
2023-01-06T21:13:48.180Z,100062.16
2023-01-06T21:16:16.387Z,100050.75
2023-01-06T21:18:44.295Z,100066.25
2023-01-06T21:21:12.366Z,100033.25
2023-01-06T21:23:40.850Z,100050.25
2023-01-06T21:26:08.792Z,100048.25
2023-01-06T21:28:38.247Z,100043.19
2023-01-06T21:31:06.485Z,100041.19
2023-01-06T21:33:34.549Z,100039.81
2023-01-06T21:36:02.572Z,100030.75
2023-01-06T21:38:30.764Z,100035.44
2023-01-06T21:41:24.565Z,100028.06
2023-01-06T21:43:53.199Z,100028.06
2023-01-06T21:46:21.722Z,100026.34
2023-01-06T21:48:49.809Z,100000.97
2023-01-06T21:51:18.682Z,100016.09
2023-01-06T21:53:47.002Z,99995.22
2023-01-06T21:56:15.311Z,99998.78
2023-01-06T21:58:43.643Z,99997.56
2023-01-06T22:01:14.529Z,99998.06
2023-01-06T22:03:42.513Z,100001.59
2023-01-06T22:06:11.692Z,99989.16
2023-01-06T22:08:40.375Z,99988.13
2023-01-06T22:11:08.811Z,99980.56
2023-01-06T22:13:37.497Z,99986.28
2023-01-06T22:16:05.974Z,99988.16
2023-01-06T22:18:38.616Z,99976.72
2023-01-06T22:21:07.519Z,99978.59
2023-01-06T22:23:36.845Z,99985.00
2023-01-06T22:26:05.246Z,99962.13
2023-01-06T22:28:33.310Z,99955.41
2023-01-06T22:31:01.285Z,99956.09
2023-01-06T22:33:29.240Z,99960.78
2023-01-06T22:35:59.837Z,99958.47
2023-01-06T22:38:28.087Z,99957.97
2023-01-06T22:40:56.163Z,99952.59
2023-01-06T22:43:24.287Z,99955.44
2023-01-06T22:45:53.260Z,99926.50
2023-01-06T22:48:21.916Z,99915.41
2023-01-06T22:50:57.177Z,99935.91
2023-01-06T22:53:27.754Z,99924.97
2023-01-06T22:55:59.694Z,99929.84
2023-01-06T22:58:28.376Z,99908.97
2023-01-06T23:00:56.781Z,99914.00
2023-01-06T23:03:24.931Z,99912.53
2023-01-06T23:05:57.305Z,99912.16
2023-01-06T23:08:27.264Z,99906.28
2023-01-06T23:11:00.004Z,99916.06
2023-01-06T23:13:28.179Z,99905.94
2023-01-06T23:16:04.845Z,99904.78
2023-01-06T23:18:33.807Z,99900.06
2023-01-06T23:21:03.746Z,99883.06
2023-01-06T23:23:34.740Z,99871.66
2023-01-06T23:26:04.778Z,99875.38
2023-01-06T23:28:33.338Z,99866.28
2023-01-06T23:31:06.074Z,99863.59
2023-01-06T23:33:38.157Z,99854.19
2023-01-06T23:36:06.968Z,99847.75
2023-01-06T23:38:37.070Z,99841.16
2023-01-06T23:41:07.628Z,99835.44
2023-01-06T23:43:36.937Z,99845.88
2023-01-06T23:46:07.287Z,99830.06
2023-01-06T23:48:37.050Z,99829.22
2023-01-06T23:51:06.876Z,99830.59
2023-01-06T23:53:37.839Z,99817.31
2023-01-06T23:56:08.310Z,99805.03
2023-01-06T23:58:38.293Z,99799.66
